Weather at Phoenix Sky Harbor International Airport

Public forecast

Using degrees Fahrenheit for public forecast. Weather courtesy of forecast.io.

Current aviation weather report (METAR) for Phoenix Sky Harbor International Airport

Retrieved 2021/07/29 06:51 UTC (59 minutes ago):

KPHX 290651Z 00000KT 10SM FEW200 36/14 A2983 RMK AO2 SLP077 T03560139 404060283

Aviation forecast (TAF) for Phoenix Sky Harbor International Airport

Retrieved 2021/07/29 06:36 UTC (1 hour ago):

TAF KPHX 290534Z 2906/3012 VRB05KT P6SM SCT250 FM290900 10006KT P6SM SCT150 OVC250 FM291400 12005KT P6SM BKN140 FM292100 22006KT P6SM SCT120 SCT150 SCT250 TEMPO 2921/2923 VRB05KT FM300000 11020G30KT 6SM BLDU VCTS SCT070CB BKN120 OVC200 PROB30 3000/3004 VRB25G35KT 4SM TSRA BLDU BKN070CB FM300500 12008KT P6SM FEW070 BKN120 OVC250